createdAt,value
2018-08-19T00:00:00.346Z,78.20
2018-08-19T00:02:30.426Z,78.50
2018-08-19T00:05:11.888Z,78.60
2018-08-19T00:07:41.837Z,78.40
2018-08-19T00:10:11.817Z,78.60
2018-08-19T00:12:45.516Z,78.90
2018-08-19T00:15:16.103Z,78.80
2018-08-19T00:17:46.102Z,78.70
2018-08-19T00:20:16.382Z,78.90
2018-08-19T00:22:47.417Z,78.80
2018-08-19T00:25:33.566Z,78.90
2018-08-19T00:28:05.602Z,79.50
2018-08-19T00:30:35.633Z,80.10
2018-08-19T00:33:05.886Z,80.50
2018-08-19T00:35:35.698Z,80.20
2018-08-19T00:38:05.723Z,79.90
2018-08-19T00:40:35.699Z,80.20
2018-08-19T00:43:05.707Z,80.20
2018-08-19T00:45:35.777Z,80.00
2018-08-19T00:48:05.797Z,80.20
2018-08-19T00:50:35.646Z,80.70
2018-08-19T00:53:05.982Z,80.20
2018-08-19T00:55:41.332Z,80.30
2018-08-19T00:58:17.867Z,80.30
2018-08-19T01:00:47.872Z,80.60
2018-08-19T01:03:17.992Z,80.60
2018-08-19T01:05:47.917Z,80.10
2018-08-19T01:08:17.789Z,80.10
2018-08-19T01:10:47.847Z,80.00
2018-08-19T01:13:17.814Z,80.20
2018-08-19T01:15:47.678Z,80.30
2018-08-19T01:18:17.619Z,80.70
2018-08-19T01:20:47.897Z,80.60
2018-08-19T01:23:17.807Z,81.00
2018-08-19T01:25:47.852Z,81.20
2018-08-19T01:28:17.623Z,81.20
2018-08-19T01:30:47.684Z,81.40
2018-08-19T01:33:17.547Z,81.30
2018-08-19T01:35:47.459Z,81.60
2018-08-19T01:38:17.538Z,81.80
2018-08-19T01:40:47.519Z,82.00
2018-08-19T01:43:17.637Z,81.90
2018-08-19T01:45:48.366Z,82.00
2018-08-19T01:48:18.301Z,82.30
2018-08-19T01:50:48.374Z,82.50
2018-08-19T01:53:18.283Z,82.10
2018-08-19T01:55:48.223Z,81.90
2018-08-19T01:58:18.102Z,81.60
2018-08-19T02:00:48.091Z,81.90
2018-08-19T02:03:18.050Z,82.30
2018-08-19T02:05:47.869Z,83.00
2018-08-19T02:08:17.984Z,83.20
2018-08-19T02:10:47.773Z,82.70
2018-08-19T02:13:17.737Z,82.60
2018-08-19T02:15:47.741Z,82.70
2018-08-19T02:18:17.499Z,82.50
2018-08-19T02:20:47.359Z,82.20
2018-08-19T02:23:17.444Z,82.10
2018-08-19T02:25:48.698Z,82.10
2018-08-19T02:28:22.472Z,82.50
2018-08-19T02:31:00.219Z,82.80
2018-08-19T02:33:34.377Z,82.90
2018-08-19T02:36:06.926Z,83.10
2018-08-19T02:38:38.267Z,83.40
2018-08-19T02:41:08.643Z,83.50
2018-08-19T02:43:46.748Z,83.40
2018-08-19T02:46:17.232Z,83.90
2018-08-19T02:48:50.188Z,83.60
2018-08-19T02:51:20.946Z,83.50
2018-08-19T02:53:51.666Z,83.20
2018-08-19T02:56:21.465Z,83.60
2018-08-19T02:58:51.314Z,83.60
2018-08-19T03:01:21.464Z,83.40
2018-08-19T03:03:51.407Z,83.00
2018-08-19T03:06:21.273Z,83.10
2018-08-19T03:08:56.527Z,83.30
2018-08-19T03:11:26.363Z,83.50
2018-08-19T03:13:56.954Z,83.70
2018-08-19T03:16:26.884Z,83.70
2018-08-19T03:18:57.110Z,83.80
2018-08-19T03:21:27.276Z,84.00
2018-08-19T03:23:57.190Z,84.00
2018-08-19T03:26:27.993Z,84.40
2018-08-19T03:28:59.313Z,84.30
2018-08-19T03:31:29.204Z,85.00
2018-08-19T03:33:59.152Z,84.40
2018-08-19T03:36:29.045Z,85.20
2018-08-19T03:39:12.009Z,84.90
2018-08-19T03:41:41.805Z,84.90
2018-08-19T03:44:11.778Z,85.00
2018-08-19T03:46:41.754Z,85.30
2018-08-19T03:49:12.204Z,85.70
2018-08-19T03:51:42.416Z,85.10
2018-08-19T03:54:12.442Z,85.50
2018-08-19T03:56:42.302Z,85.40
2018-08-19T03:59:13.772Z,86.80
2018-08-19T04:01:44.876Z,86.10
2018-08-19T04:04:17.169Z,85.90
2018-08-19T04:06:47.140Z,85.90
2018-08-19T04:09:17.142Z,85.50
2018-08-19T04:12:02.684Z,85.70
2018-08-19T04:14:32.647Z,86.10
2018-08-19T04:17:03.379Z,85.40
2018-08-19T04:19:34.923Z,85.40
2018-08-19T04:22:06.492Z,85.20
2018-08-19T04:24:37.002Z,85.20
2018-08-19T04:27:09.483Z,86.20
2018-08-19T04:29:39.462Z,85.50
2018-08-19T04:32:19.540Z,86.10
2018-08-19T04:34:49.647Z,86.30
2018-08-19T04:37:19.690Z,86.30
2018-08-19T04:39:49.837Z,86.40
2018-08-19T04:42:20.005Z,86.60
2018-08-19T04:44:49.875Z,86.50
2018-08-19T04:47:32.531Z,86.40
2018-08-19T04:50:02.282Z,86.20
2018-08-19T04:52:34.138Z,86.10
2018-08-19T04:55:04.093Z,86.30
2018-08-19T04:57:33.887Z,86.30
2018-08-19T05:00:03.990Z,85.70
2018-08-19T05:02:34.022Z,87.00
2018-08-19T05:05:03.837Z,87.60
2018-08-19T05:07:33.895Z,87.30
2018-08-19T05:10:03.958Z,88.50
2018-08-19T05:12:33.883Z,88.60
2018-08-19T05:15:03.893Z,87.20
2018-08-19T05:17:33.802Z,86.90
2018-08-19T05:20:16.598Z,86.20
2018-08-19T05:22:46.492Z,86.40
2018-08-19T05:25:16.313Z,86.10
2018-08-19T05:27:52.009Z,86.10
2018-08-19T05:30:21.892Z,86.80
2018-08-19T05:32:55.763Z,86.00
2018-08-19T05:35:26.053Z,86.80
2018-08-19T05:37:56.184Z,86.90
2018-08-19T05:40:26.073Z,86.90
2018-08-19T05:42:55.988Z,86.80
2018-08-19T05:45:26.031Z,86.50
2018-08-19T05:48:09.340Z,86.00
2018-08-19T05:50:39.452Z,85.80
2018-08-19T05:53:09.239Z,85.90
2018-08-19T05:55:39.349Z,85.60
2018-08-19T05:58:09.291Z,85.20
2018-08-19T06:00:43.933Z,85.00
2018-08-19T06:03:13.718Z,85.00
2018-08-19T06:05:43.589Z,85.40
2018-08-19T06:08:15.557Z,85.40
2018-08-19T06:10:45.611Z,85.60
2018-08-19T06:13:15.390Z,85.90
2018-08-19T06:15:45.621Z,85.60
2018-08-19T06:18:15.403Z,85.10
2018-08-19T06:20:46.230Z,84.70
2018-08-19T06:23:15.944Z,84.70
2018-08-19T06:25:45.558Z,84.20
2018-08-19T06:28:15.069Z,83.90
2018-08-19T06:30:45.034Z,84.00
2018-08-19T06:33:15.016Z,83.60
2018-08-19T06:35:44.809Z,83.90
2018-08-19T06:38:14.289Z,83.10
2018-08-19T06:40:44.064Z,83.10
2018-08-19T06:43:13.634Z,83.20
2018-08-19T06:45:43.177Z,82.40
2018-08-19T06:48:12.948Z,83.10
2018-08-19T06:50:43.119Z,82.30
2018-08-19T06:53:16.911Z,81.60
2018-08-19T06:55:46.763Z,81.10
2018-08-19T06:58:16.673Z,80.70
2018-08-19T07:00:46.800Z,81.00
2018-08-19T07:03:16.864Z,80.90
2018-08-19T07:06:02.178Z,80.90
2018-08-19T07:08:32.363Z,83.80
2018-08-19T07:11:02.628Z,81.90
2018-08-19T07:13:32.550Z,79.40
2018-08-19T07:16:01.998Z,79.30
2018-08-19T07:18:31.873Z,78.00
2018-08-19T07:21:01.509Z,75.50
2018-08-19T07:23:31.376Z,74.90
2018-08-19T07:26:00.840Z,73.20
2018-08-19T07:28:30.224Z,73.00
2018-08-19T07:31:00.234Z,72.70
2018-08-19T07:33:30.788Z,72.90
2018-08-19T07:36:00.712Z,70.10
2018-08-19T07:38:30.684Z,70.40
2018-08-19T07:41:00.628Z,71.90
2018-08-19T07:43:30.435Z,72.60
2018-08-19T07:46:00.325Z,71.20
2018-08-19T07:48:30.245Z,69.30
2018-08-19T07:51:00.204Z,69.60
2018-08-19T07:53:30.056Z,69.70
2018-08-19T07:55:59.988Z,70.40
2018-08-19T07:58:41.725Z,69.00
2018-08-19T08:01:11.805Z,69.80
2018-08-19T08:03:41.681Z,69.60
2018-08-19T08:06:11.137Z,68.10
2018-08-19T08:08:40.886Z,67.70
2018-08-19T08:11:10.433Z,67.50
2018-08-19T08:13:40.046Z,67.20
2018-08-19T08:16:09.608Z,67.10
2018-08-19T08:18:39.250Z,66.30
2018-08-19T08:21:15.511Z,65.60
2018-08-19T08:23:45.504Z,65.00
2018-08-19T08:26:15.699Z,66.30
2018-08-19T08:28:53.760Z,65.20
2018-08-19T08:31:23.973Z,65.70
2018-08-19T08:33:54.195Z,65.50
2018-08-19T08:36:24.301Z,65.90
2018-08-19T08:38:54.306Z,66.80
2018-08-19T08:41:24.224Z,66.30
2018-08-19T08:43:54.018Z,65.70
2018-08-19T08:46:23.930Z,65.10
2018-08-19T08:48:53.874Z,65.30
2018-08-19T08:51:23.966Z,66.20
2018-08-19T08:53:53.556Z,67.40
2018-08-19T08:56:23.687Z,66.80
2018-08-19T08:58:53.104Z,66.60
2018-08-19T09:01:22.639Z,67.00
2018-08-19T09:03:52.416Z,66.90
2018-08-19T09:06:27.194Z,67.00
2018-08-19T09:08:57.743Z,66.90
2018-08-19T09:11:27.465Z,66.30
2018-08-19T09:13:57.256Z,65.70
2018-08-19T09:16:27.072Z,65.40
2018-08-19T09:18:57.180Z,66.10
2018-08-19T09:26:19.848Z,64.90
2018-08-19T09:28:49.368Z,64.50
2018-08-19T09:31:19.069Z,64.30
2018-08-19T09:33:48.530Z,63.50
2018-08-19T09:36:18.124Z,63.90
2018-08-19T09:38:47.562Z,64.40
2018-08-19T09:41:17.258Z,65.10
2018-08-19T09:43:46.774Z,63.40
2018-08-19T09:46:16.375Z,62.70
2018-08-19T09:48:46.226Z,64.50
2018-08-19T09:51:16.275Z,64.50
2018-08-19T09:53:46.469Z,64.10
2018-08-19T09:56:16.246Z,63.50
2018-08-19T09:58:50.934Z,63.30
2018-08-19T10:01:25.986Z,63.00
2018-08-19T10:03:55.849Z,62.70
2018-08-19T10:06:25.669Z,63.60
2018-08-19T10:08:55.146Z,63.80
2018-08-19T10:11:24.665Z,63.00
2018-08-19T10:13:59.095Z,62.30
2018-08-19T10:16:41.716Z,62.60
2018-08-19T10:19:11.684Z,62.90
2018-08-19T10:21:41.253Z,61.70
2018-08-19T10:24:33.984Z,60.00
2018-08-19T10:27:08.550Z,59.80
2018-08-19T10:29:38.415Z,58.70
2018-08-19T10:32:08.219Z,58.20
2018-08-19T10:34:38.134Z,58.60
2018-08-19T10:37:08.318Z,58.00
2018-08-19T10:39:38.359Z,57.90
2018-08-19T10:42:21.830Z,58.90
2018-08-19T10:44:52.552Z,58.40
2018-08-19T10:47:22.313Z,58.00
2018-08-19T10:49:58.626Z,58.70
2018-08-19T10:52:30.851Z,57.60
2018-08-19T10:55:01.404Z,58.40
2018-08-19T10:57:31.975Z,58.60
2018-08-19T11:00:02.108Z,58.10
2018-08-19T11:02:32.178Z,57.00
2018-08-19T11:05:02.131Z,56.90
2018-08-19T11:07:32.175Z,56.70
2018-08-19T11:10:21.675Z,56.30
2018-08-19T11:12:54.459Z,56.30
2018-08-19T11:15:49.990Z,55.80
2018-08-19T11:18:43.389Z,55.30
2018-08-19T11:21:14.820Z,54.20
2018-08-19T11:23:46.305Z,54.80
2018-08-19T11:26:16.396Z,54.50
2018-08-19T11:28:51.938Z,54.60
2018-08-19T11:31:27.873Z,53.80
2018-08-19T11:34:00.310Z,54.40
2018-08-19T11:36:36.886Z,54.20
2018-08-19T11:39:12.193Z,53.60
2018-08-19T11:41:41.962Z,52.60
2018-08-19T11:44:15.994Z,52.10
2018-08-19T11:46:46.211Z,50.90
2018-08-19T11:49:19.285Z,51.30
2018-08-19T11:51:52.722Z,51.30
2018-08-19T11:54:23.736Z,52.40
2018-08-19T11:57:01.916Z,52.10
2018-08-19T11:59:45.277Z,51.40
2018-08-19T12:02:20.357Z,51.00
2018-08-19T12:04:50.918Z,51.20
2018-08-19T12:08:11.632Z,51.30
2018-08-19T12:10:41.058Z,50.20
2018-08-19T12:13:10.686Z,50.60
2018-08-19T12:15:40.642Z,51.60
2018-08-19T12:18:10.279Z,51.00
2018-08-19T12:20:39.985Z,51.40
2018-08-19T12:23:10.866Z,50.50
2018-08-19T12:25:40.487Z,51.30
2018-08-19T12:28:10.151Z,51.20
2018-08-19T12:30:39.901Z,50.10
2018-08-19T12:33:24.551Z,51.00
2018-08-19T12:35:56.819Z,50.00
2018-08-19T12:38:27.141Z,49.30
2018-08-19T12:40:57.170Z,49.90
2018-08-19T12:43:27.557Z,49.90
2018-08-19T12:45:58.370Z,49.20
2018-08-19T12:48:28.687Z,49.20
2018-08-19T12:51:05.548Z,49.40
2018-08-19T12:53:35.860Z,48.70
2018-08-19T12:56:05.961Z,48.00
2018-08-19T12:58:35.791Z,48.10
2018-08-19T13:01:06.157Z,47.60
2018-08-19T13:03:36.316Z,46.80
2018-08-19T13:06:08.031Z,46.20
2018-08-19T13:08:38.254Z,45.80
2018-08-19T13:11:08.952Z,45.80
2018-08-19T13:13:39.144Z,45.40
2018-08-19T13:16:09.124Z,45.40
2018-08-19T13:18:42.164Z,45.30
2018-08-19T13:21:16.270Z,45.30
2018-08-19T13:23:46.639Z,45.30
2018-08-19T13:26:16.505Z,46.00
2018-08-19T13:28:54.517Z,44.10
2018-08-19T13:31:28.165Z,44.70
2018-08-19T13:33:57.590Z,43.80
2018-08-19T13:36:27.082Z,44.10
2018-08-19T13:38:56.506Z,44.30
2018-08-19T13:41:25.965Z,44.70
2018-08-19T13:43:55.477Z,44.60
2018-08-19T13:46:25.063Z,45.00
2018-08-19T13:48:54.537Z,44.80
2018-08-19T13:51:23.971Z,43.60
2018-08-19T13:53:53.652Z,43.30
2018-08-19T13:56:23.517Z,43.30
2018-08-19T13:58:53.018Z,43.70
2018-08-19T14:01:22.445Z,43.30
2018-08-19T14:03:52.092Z,44.80
2018-08-19T14:06:21.976Z,44.70
2018-08-19T14:08:52.776Z,44.20
2018-08-19T14:11:22.399Z,43.20
2018-08-19T14:13:52.280Z,42.30
2018-08-19T14:16:21.970Z,42.60
2018-08-19T14:18:51.547Z,42.10
2018-08-19T14:21:21.072Z,43.20
2018-08-19T14:23:50.736Z,42.80
2018-08-19T14:26:20.324Z,42.90
2018-08-19T14:28:49.827Z,41.60
2018-08-19T14:31:19.247Z,41.60
2018-08-19T14:33:48.825Z,41.70
2018-08-19T14:36:18.418Z,41.70
2018-08-19T14:38:48.170Z,41.70
2018-08-19T14:41:17.748Z,43.10
2018-08-19T14:43:59.494Z,43.50
2018-08-19T14:46:30.197Z,43.20
2018-08-19T14:49:03.914Z,41.80
2018-08-19T14:52:02.399Z,42.10
2018-08-19T14:54:33.429Z,42.80
2018-08-19T14:57:03.618Z,42.50
2018-08-19T14:59:33.107Z,41.70
2018-08-19T15:02:02.797Z,41.70
2018-08-19T15:04:32.197Z,41.10
2018-08-19T15:07:01.907Z,41.50
2018-08-19T15:09:32.543Z,41.00
2018-08-19T15:12:13.101Z,41.10
2018-08-19T15:14:43.323Z,40.80
2018-08-19T15:17:13.007Z,41.20
2018-08-19T15:19:48.627Z,42.00
2018-08-19T15:22:18.652Z,40.00
2018-08-19T15:24:48.616Z,39.70
2018-08-19T15:27:18.728Z,39.50
2018-08-19T15:29:51.704Z,39.50
2018-08-19T15:32:24.308Z,39.30
2018-08-19T15:34:54.371Z,39.60
2018-08-19T15:37:24.345Z,38.60
2018-08-19T15:39:54.367Z,37.80
2018-08-19T15:42:24.423Z,36.90
2018-08-19T15:44:54.446Z,36.90
2018-08-19T15:47:24.427Z,38.30
2018-08-19T15:50:14.065Z,38.20
2018-08-19T15:52:45.164Z,37.80
2018-08-19T15:55:15.554Z,37.20
2018-08-19T15:57:45.452Z,36.20
2018-08-19T16:00:15.551Z,37.20
2018-08-19T16:02:45.505Z,36.70
2018-08-19T16:05:16.482Z,37.30
2018-08-19T16:07:47.335Z,38.30
2018-08-19T16:10:17.479Z,38.30
2018-08-19T16:12:49.894Z,37.60
2018-08-19T16:15:26.051Z,37.00
2018-08-19T16:17:57.261Z,36.90
2018-08-19T16:20:27.447Z,37.20
2018-08-19T16:22:57.525Z,37.20
2018-08-19T16:25:27.415Z,37.10
2018-08-19T16:27:57.517Z,37.40
2018-08-19T16:30:27.774Z,38.00
2018-08-19T16:32:57.840Z,39.10
2018-08-19T16:35:28.005Z,38.90
2018-08-19T16:37:57.960Z,39.60
2018-08-19T16:40:28.204Z,40.60
2018-08-19T16:42:58.160Z,40.50
2018-08-19T16:45:28.286Z,39.40
2018-08-19T16:47:58.330Z,39.30
2018-08-19T16:50:28.921Z,38.80
2018-08-19T16:52:58.849Z,38.30
2018-08-19T16:55:28.891Z,39.40
2018-08-19T16:57:58.966Z,39.70
2018-08-19T17:00:28.909Z,40.00
2018-08-19T17:02:59.025Z,40.70
2018-08-19T17:05:33.451Z,40.40
2018-08-19T17:08:03.510Z,40.40
2018-08-19T17:10:33.137Z,41.80
2018-08-19T17:13:02.567Z,42.30
2018-08-19T17:15:32.565Z,42.40
2018-08-19T17:18:02.548Z,42.10
2018-08-19T17:20:32.535Z,43.00
2018-08-19T17:23:03.624Z,43.30
2018-08-19T17:25:34.727Z,42.60
2018-08-19T17:28:10.646Z,42.20
2018-08-19T17:30:40.849Z,41.90
2018-08-19T17:33:11.460Z,41.80
2018-08-19T17:35:44.226Z,42.30
2018-08-19T17:38:14.552Z,42.20
2018-08-19T17:40:46.105Z,42.30
2018-08-19T17:43:16.054Z,43.30
2018-08-19T17:45:49.889Z,42.80
2018-08-19T17:48:19.994Z,43.50
2018-08-19T17:50:50.416Z,44.70
2018-08-19T17:53:20.414Z,45.60
2018-08-19T17:55:50.379Z,46.50
2018-08-19T17:58:21.760Z,47.30
2018-08-19T18:05:49.965Z,48.70
2018-08-19T18:08:20.161Z,50.30
2018-08-19T18:10:56.192Z,50.20
2018-08-19T18:13:27.004Z,50.70
2018-08-19T18:15:57.507Z,51.10
2018-08-19T18:18:28.572Z,51.10
2018-08-19T18:20:59.351Z,51.50
2018-08-19T18:23:29.522Z,51.70
2018-08-19T18:25:59.648Z,51.80
2018-08-19T18:28:31.075Z,52.90
2018-08-19T18:33:53.109Z,52.40
2018-08-19T18:36:24.638Z,52.90
2018-08-19T18:38:54.714Z,53.50
2018-08-19T18:41:30.114Z,53.90
2018-08-19T18:44:01.663Z,54.40
2018-08-19T18:46:32.339Z,54.60
2018-08-19T18:49:09.552Z,54.70
2018-08-19T18:51:40.966Z,54.80
2018-08-19T18:54:20.705Z,54.80
2018-08-19T18:56:52.037Z,55.20
2018-08-19T18:59:22.765Z,55.40
2018-08-19T19:01:57.944Z,55.60
2018-08-19T19:04:28.276Z,55.80
2018-08-19T19:06:58.389Z,56.30
2018-08-19T19:09:38.832Z,56.60
2018-08-19T19:12:08.970Z,56.50
2018-08-19T19:14:40.930Z,56.50
2018-08-19T19:17:11.406Z,56.80
2018-08-19T19:19:46.498Z,57.10
2018-08-19T19:22:16.674Z,57.20
2018-08-19T19:24:47.051Z,58.10
2018-08-19T19:27:17.315Z,57.60
2018-08-19T19:29:51.795Z,57.30
2018-08-19T19:32:26.026Z,57.00
2018-08-19T19:34:57.704Z,56.70
2018-08-19T19:37:28.107Z,56.70
2018-08-19T19:40:03.701Z,56.60
2018-08-19T19:42:34.339Z,56.50
2018-08-19T19:45:04.599Z,56.70
2018-08-19T19:47:34.910Z,57.20
2018-08-19T19:50:05.745Z,57.40
2018-08-19T19:52:35.871Z,57.50
2018-08-19T19:55:05.955Z,57.70
2018-08-19T19:57:36.112Z,57.80
2018-08-19T20:00:06.074Z,58.10
2018-08-19T20:02:36.262Z,58.20
2018-08-19T20:05:12.330Z,58.40
2018-08-19T20:07:42.688Z,58.50
2018-08-19T20:10:19.580Z,58.80
2018-08-19T20:12:49.565Z,59.00
2018-08-19T20:15:19.933Z,58.90
2018-08-19T20:17:50.034Z,59.20
2018-08-19T20:20:20.332Z,59.30
2018-08-19T20:22:50.546Z,59.60
2018-08-19T20:25:20.844Z,59.60
2018-08-19T20:27:55.448Z,59.90
2018-08-19T20:30:25.306Z,59.70
2018-08-19T20:32:55.130Z,60.10
2018-08-19T20:35:25.240Z,60.90
2018-08-19T20:37:55.957Z,61.60
2018-08-19T20:40:25.786Z,62.20
2018-08-19T20:42:55.610Z,62.70
2018-08-19T20:45:25.312Z,63.30
2018-08-19T20:47:55.398Z,63.70
2018-08-19T20:50:25.302Z,64.90
2018-08-19T20:52:55.403Z,64.80
2018-08-19T20:55:25.697Z,65.20
2018-08-19T20:57:55.716Z,66.60
2018-08-19T21:00:25.811Z,66.80
2018-08-19T21:02:55.844Z,67.10
2018-08-19T21:05:25.814Z,68.10
2018-08-19T21:08:14.794Z,70.00
2018-08-19T21:10:45.696Z,71.10
2018-08-19T21:13:17.091Z,71.80
2018-08-19T21:15:50.691Z,72.40
2018-08-19T21:18:20.815Z,73.20
2018-08-19T21:20:51.077Z,74.00
2018-08-19T21:23:21.105Z,74.70
2018-08-19T21:25:56.305Z,74.90
2018-08-19T21:28:26.385Z,75.30
2018-08-19T21:30:56.594Z,75.80
2018-08-19T21:33:26.719Z,76.00
2018-08-19T21:35:57.396Z,76.50
2018-08-19T21:38:27.546Z,76.90
2018-08-19T21:40:58.526Z,77.60
2018-08-19T21:43:31.376Z,76.90
2018-08-19T21:46:01.949Z,77.60
2018-08-19T21:48:32.105Z,78.10
2018-08-19T21:51:02.100Z,78.00
2018-08-19T21:53:32.242Z,77.80
2018-08-19T21:56:02.221Z,77.20
2018-08-19T21:58:32.019Z,76.60
2018-08-19T22:01:03.381Z,76.20
2018-08-19T22:03:38.606Z,75.80
2018-08-19T22:06:09.587Z,75.70
2018-08-19T22:08:39.625Z,76.00
2018-08-19T22:11:09.582Z,76.10
2018-08-19T22:13:39.465Z,76.30
2018-08-19T22:16:09.374Z,76.10
2018-08-19T22:18:39.500Z,75.80
2018-08-19T22:21:19.137Z,75.70
2018-08-19T22:23:50.310Z,75.80
2018-08-19T22:26:21.324Z,75.80
2018-08-19T22:29:09.215Z,75.90
2018-08-19T22:31:39.226Z,76.20
2018-08-19T22:34:09.334Z,76.30
2018-08-19T22:36:39.265Z,76.40
2018-08-19T22:39:11.763Z,75.90
2018-08-19T22:41:42.153Z,76.00
2018-08-19T22:44:12.334Z,76.20
2018-08-19T22:46:42.488Z,76.20
2018-08-19T22:49:12.707Z,76.10
2018-08-19T22:51:42.920Z,76.20
2018-08-19T22:54:12.745Z,77.10
2018-08-19T22:56:42.599Z,76.80
2018-08-19T22:59:12.505Z,77.00
2018-08-19T23:01:49.019Z,76.90
2018-08-19T23:04:19.020Z,77.00
2018-08-19T23:06:49.031Z,77.60
2018-08-19T23:09:19.104Z,77.70
2018-08-19T23:11:48.985Z,77.70
2018-08-19T23:14:35.281Z,77.50
2018-08-19T23:17:08.645Z,77.70
2018-08-19T23:19:38.755Z,77.60
2018-08-19T23:22:08.728Z,77.40
2018-08-19T23:24:38.774Z,77.50
2018-08-19T23:27:08.785Z,77.70
2018-08-19T23:29:39.059Z,78.00
2018-08-19T23:32:09.170Z,78.00
2018-08-19T23:34:39.110Z,77.70
2018-08-19T23:37:09.074Z,78.20
2018-08-19T23:39:39.064Z,78.40
2018-08-19T23:42:08.930Z,78.70
2018-08-19T23:44:38.895Z,79.00
2018-08-19T23:47:09.165Z,78.90
2018-08-19T23:49:39.058Z,79.00
2018-08-19T23:52:09.144Z,79.20
2018-08-19T23:54:39.139Z,79.60
2018-08-19T23:57:09.104Z,79.40
2018-08-19T23:59:39.273Z,79.80
